VOCB/CJB METAR and TAF weather

Enter ICAO airport designator
Station Type Date Time Source
VOCB METAR 2018/12/10 02:30 UTC NOAA

VOCB 100230Z 00000KT 1500 BR SCT015 BKN080 24/20 Q1016 NOSIG


Station Type Date Time Source
VOCB Decoded METAR 2018/12/10 02:30 UTC NOAA

Coimbatore / Peelamedu, India (VOCB) 11-02N 077-03E 399M
Dec 09, 2018 - 09:30 PM EST / 2018.12.10 0230 UTC
Wind: Calm:0
Visibility: less than 1 mile:0
Sky conditions: mostly cloudy
Weather: mist
Temperature: 75 F (24 C)
Dew Point: 68 F (20 C)
Relative Humidity: 78%
Pressure (altimeter): 30.00 in. Hg (1016 hPa)
ob: VOCB 100230Z 00000KT 1500 BR SCT015 BKN080 24/20 Q1016 NOSIG
cycle: 2

Station Type Date Time Source
VOCB TAF 2018/12/09 18:00 UTC NOAA

TAF VOCB 091700Z 0918/1024 07005KT 3000 BR FEW015 SCT080
TEMPO 1000/1003 1500 BR
BECMG 1009/1010 5000 HZ
BECMG 1018/1019 3000 BR


Example: see airport list